Terminal Aerodrome Forecast
Issued by NWS

Home | Current Version | Previous Version | Text Only | Print | Product List | Glossary On
Versions: 1 2 3 4 5 6 7 8 9 10 11 12 13 14 15 16
492
FTUS46 KHNX 131120
TAFVIS
TAF
KVIS 131120Z 1312/1412 00000KT 2SM BR SCT200
      TEMPO 1312/1316 3/4SM BR BKN005
     FM131700 VRB03KT 4SM BR SCT200
     FM132000 31008KT P6SM SKC
     FM140500 VRB03KT P6SM SKC
     FM140900 VRB03KT 4SM BR SKC=

USA.gov is the U.S. government's official web portal to all federal, state and local government web resources and services.